Data for 12/10/2009

Time Sea-Level Adjusted Pressure Absolute Pressure Temperature Relative Humidity Dew Point   
(mb) (inHg) (mb) (inHg) (C) (F) (%) (C) (F)
00:05 1014 29.94 843 24.89 -20.4 -4.7 78 -23.3 -9.9
00:10 1014 29.94 843 24.89 -20.3 -4.6 69 -24.6 -12.3
00:15 1014 29.94 843 24.89 -20.3 -4.6 69 -24.6 -12.2
00:20 1014 29.94 843 24.89 -20.2 -4.3 74 -23.8 -10.8
00:25 1014 29.94 843 24.89 -20.3 -4.5 70 -24.4 -11.8
00:30 1014 29.94 843 24.89 -20.5 -5 69 -24.8 -12.6
00:35 1014 29.94 843 24.89 -20.5 -4.9 70 -24.6 -12.2
00:40 1014 29.94 843 24.89 -20.3 -4.6 74 -23.8 -10.9
00:45 1014 29.94 843 24.89 -20.4 -4.7 70 -24.6 -12.3
00:50 1014 29.94 843 24.89 -20.6 -5 71 -24.6 -12.3
00:55 1014 29.94 843 24.89 -20.6 -5 70 -24.7 -12.4
01:00 1014 29.94 843 24.89 -20.6 -5 71 -24.6 -12.2
01:05 1014 29.94 843 24.89 -20.7 -5.3 71 -24.7 -12.5
01:10 1014 29.94 843 24.89 -21.1 -6 72 -24.9 -12.8
01:15 1014 29.94 843 24.89 -21 -5.9 74 -24.5 -12
01:20 1014 29.94 843 24.89 -20.7 -5.3 73 -24.4 -11.9
01:25 1014 29.94 843 24.89 -20.7 -5.2 73 -24.3 -11.7
01:30 1014 29.94 843 24.89 -20.6 -5.2 74 -24.2 -11.6
01:35 1014 29.94 843 24.89 -20.4 -4.6 72 -24.2 -11.5
01:40 1014 29.94 843 24.89 -20 -4.1 70 -24.1 -11.4
01:45 1014 29.94 843 24.89 -20.5 -4.9 72 -24.4 -11.9
01:50 1014 29.94 843 24.89 -20.7 -5.3 72 -24.5 -12.2
01:55 1014 29.94 843 24.89 -20.9 -5.6 73 -24.5 -12.1
02:00 1014 29.94 843 24.89 -20.6 -5.1 72 -24.5 -12.1
02:05 1014 29.94 843 24.89 -20.4 -4.7 71 -24.4 -11.9
02:10 1014 29.94 843 24.89 -20.4 -4.8 72 -24.2 -11.6
02:15 1014 29.94 843 24.89 -20.2 -4.4 72 -24.1 -11.4
02:20 1014 29.94 843 24.89 -20.1 -4.2 72 -24 -11.2
02:25 1014 29.94 843 24.89 -20.1 -4.1 73 -23.7 -10.7
02:30 1014 29.94 843 24.89 -19.8 -3.6 73 -23.5 -10.4
02:35 1014 29.94 843 24.89 -19.5 -3.1 70 -23.7 -10.6
02:40 1014 29.94 843 24.89 -19.8 -3.6 70 -23.9 -11.1
02:45 1014 29.94 843 24.89 -20 -4 70 -24.2 -11.5
02:50 1014 29.94 843 24.89 -20.3 -4.5 71 -24.2 -11.6
02:55 1014 29.94 843 24.89 -20.3 -4.5 73 -24 -11.2
03:00 1014 29.94 843 24.89 -20.4 -4.6 80 -23 -9.4
03:05 1014 29.94 843 24.89 -19.9 -3.8 75 -23.2 -9.8
03:10 1014 29.94 843 24.89 -19.2 -2.6 74 -22.8 -9
03:15 1014 29.94 843 24.89 -18.8 -1.8 68 -23.3 -9.9
03:20 1014 29.94 843 24.89 -18.3 -1 66 -23.1 -9.6
03:25 1014 29.94 843 24.89 -18.1 -0.5 63 -23.4 -10.2
03:30 1014 29.94 843 24.89 -18 -0.5 64 -23.2 -9.8
03:35 1014 29.94 843 24.89 -18.1 -0.6 64 -23.3 -9.9
03:40 1014 29.94 843 24.89 -18.5 -1.3 67 -23.3 -9.9
03:45 1014 29.94 843 24.89 -18.8 -1.8 68 -23.4 -10
03:50 1014 29.94 843 24.89 -18.7 -1.7 68 -23.3 -9.9
03:55 1014 29.94 843 24.89 -18.5 -1.4 67 -23.3 -9.9
04:00 1014 29.94 843 24.89 -18.4 -1.1 66 -23.3 -9.9
04:05 1014 29.94 843 24.89 -18.6 -1.5 68 -23.1 -9.5
04:10 1014 29.94 843 24.89 -19.5 -3 71 -23.5 -10.3
04:15 1014 29.94 843 24.89 -18.9 -2 66 -23.7 -10.7
04:20 1014 29.94 843 24.89 -18.6 -1.4 64 -23.8 -10.9
04:25 1014 29.94 843 24.89 -18.1 -0.5 62 -23.6 -10.5
04:30 1014 29.94 843 24.89 -18 -0.4 62 -23.5 -10.3
04:35 1014 29.94 843 24.89 -18.3 -0.9 62 -23.8 -10.9
04:40 1014 29.94 843 24.89 -18.9 -2 66 -23.7 -10.7
04:45 1014 29.94 843 24.89 -19.7 -3.4 73 -23.4 -10.1
04:50 1014 29.94 843 24.89 -19.5 -3.1 71 -23.5 -10.3
04:55 1014 29.94 843 24.89 -19.1 -2.4 69 -23.5 -10.3
05:00 1014 29.94 843 24.89 -18.8 -1.8 67 -23.5 -10.3
05:05 1014 29.94 843 24.89 -18.6 -1.4 65 -23.7 -10.7
05:10 1014 29.94 843 24.89 -18.8 -1.9 65 -23.9 -11
05:15 1014 29.94 843 24.89 -18.2 -0.8 63 -23.7 -10.6
05:20 1014 29.94 843 24.89 -18.5 -1.3 64 -23.7 -10.6
05:25 1014 29.94 843 24.89 -18.7 -1.7 65 -23.8 -10.8
05:30 1014 29.94 843 24.89 -20 -4 70 -24.2 -11.5
05:35 1014 29.94 843 24.89 -20.6 -5 72 -24.4 -12
05:40 1014 29.94 843 24.89 -20.8 -5.4 74 -24.4 -11.8
05:45 1014 29.94 843 24.89 -20.6 -5.1 74 -24.2 -11.5
05:50 1014 29.94 843 24.89 -19.9 -3.8 69 -24.1 -11.4
05:55 1014 29.94 843 24.89 -19 -2.2 68 -23.5 -10.3
06:00 1013 29.91 843 24.89 -18.6 -1.4 66 -23.4 -10
06:05 1013 29.91 843 24.89 -18.3 -1 65 -23.4 -10.1
06:10 1013 29.91 843 24.89 -18.5 -1.3 65 -23.6 -10.5
06:15 1013 29.91 843 24.89 -18.7 -1.7 66 -23.6 -10.5
06:20 1013 29.91 843 24.89 -19 -2.2 67 -23.7 -10.6
06:25 1013 29.91 843 24.89 -19 -2.1 66 -23.8 -10.8
06:30 1013 29.91 843 24.89 -19.3 -2.8 68 -23.7 -10.7
06:35 1013 29.91 843 24.89 -18.8 -1.8 64 -24 -11.1
06:40 1013 29.91 843 24.89 -18.5 -1.3 65 -23.6 -10.5
06:45 1013 29.91 842 24.86 -18.4 -1.1 64 -23.7 -10.6
06:50 1013 29.91 842 24.86 -18.3 -1 64 -23.6 -10.5
06:55 1013 29.91 843 24.89 -18.3 -0.9 63 -23.7 -10.6
07:00 1013 29.91 843 24.89 -18.2 -0.8 63 -23.7 -10.6
07:05 1013 29.91 843 24.89 -17.6 0.4 62 -23.2 -9.7
07:10 1013 29.91 842 24.86 -18 -0.3 64 -23.2 -9.7
07:15 1013 29.91 842 24.86 -18.3 -1 68 -22.9 -9.3
07:20 1013 29.91 842 24.86 -18.3 -0.9 69 -22.7 -8.9
07:25 1013 29.91 842 24.86 -18.2 -0.7 66 -23.1 -9.6
07:30 1013 29.91 842 24.86 -18.3 -1 74 -22 -7.5
07:35 1013 29.91 842 24.86 -17.8 -0.1 71 -21.9 -7.5
07:40 1013 29.91 842 24.86 -17.3 0.8 63 -22.7 -8.9
07:45 1013 29.91 842 24.86 -16.8 1.8 60 -22.9 -9.1
07:50 1013 29.91 843 24.89 -16.6 2.2 64 -21.8 -7.3
07:55 1013 29.91 842 24.86 -16.7 2 58 -23 -9.5
08:00 1013 29.91 842 24.86 -16.6 2.2 62 -22.2 -8
08:05 1013 29.91 842 24.86 -16.5 2.3 59 -22.8 -9
08:10 1013 29.91 842 24.86 -16.2 2.8 62 -22 -7.5
08:15 1013 29.91 843 24.89 -17 1.4 63 -22.4 -8.3
08:20 1013 29.91 843 24.89 -16.8 1.7 61 -22.6 -8.7
08:25 1013 29.91 843 24.89 -16.3 2.6 60 -22.4 -8.3
08:30 1013 29.91 843 24.89 -16.4 2.5 61 -22.2 -8
08:35 1013 29.91 843 24.89 -16.4 2.6 60 -22.4 -8.4
08:40 1013 29.91 843 24.89 -15.9 3.4 57 -22.5 -8.6
08:45 1013 29.91 843 24.89 -16 3.3 57 -22.6 -8.7
08:50 1013 29.91 843 24.89 -15.8 3.6 58 -22.4 -8.2
08:55 1013 29.91 843 24.89 -16 3.3 60 -22.1 -7.8
09:00 1013 29.91 843 24.89 -16.1 3.1 60 -22.2 -8
09:05 1013 29.91 843 24.89 -15.8 3.7 61 -21.7 -7.1
09:10 1013 29.91 843 24.89 -15.6 3.9 58 -22.2 -8
09:15 1013 29.91 843 24.89 -15.2 4.6 56 -22.1 -7.8
09:20 1013 29.91 843 24.89 -14.9 5.2 58 -21.4 -6.4
09:25 1013 29.91 843 24.89 -14.5 6 57 -21.3 -6.4
09:30 1013 29.91 843 24.89 -14.7 5.6 56 -21.6 -6.8
09:35 1013 29.91 843 24.89 -14.9 5.1 55 -22.1 -7.8
09:40 1013 29.91 843 24.89 -14.8 5.4 55 -22 -7.7
09:45 1013 29.91 843 24.89 -14.8 5.3 56 -21.9 -7.3
09:50 1013 29.91 843 24.89 -15 5 55 -22.1 -7.7
09:55 1013 29.91 843 24.89 -14.1 6.5 52 -21.9 -7.4
10:00 1013 29.91 843 24.89 -13.1 8.4 50 -21.6 -6.8
10:05 1013 29.91 843 24.89 -12.2 10.1 47 -21.4 -6.5
10:10 1013 29.91 843 24.89 -11.8 10.7 48 -20.8 -5.5
10:15 1013 29.91 843 24.89 -11.9 10.5 48 -20.9 -5.7
10:20 1013 29.91 843 24.89 -12.3 9.9 49 -21 -5.8
10:25 1014 29.94 843 24.89 -12 10.3 48 -20.9 -5.7
10:30 1013 29.91 843 24.89 -11.9 10.6 49 -20.7 -5.2
10:35 1013 29.91 843 24.89 -12 10.3 48 -21 -5.9
10:40 1013 29.91 843 24.89 -11.9 10.6 46 -21.3 -6.3
10:45 1013 29.91 843 24.89 -11.4 11.6 45 -21 -5.8
10:50 1013 29.91 842 24.86 -10.8 12.7 43 -21.2 -6.1
10:55 1013 29.91 842 24.86 -10.6 12.9 44 -20.8 -5.4
11:00 1013 29.91 842 24.86 -11.2 11.9 47 -20.4 -4.8
11:05 1013 29.91 842 24.86 -11 12.3 46 -20.6 -5
11:10 1013 29.91 842 24.86 -10.6 12.9 44 -20.6 -5
11:15 1013 29.91 842 24.86 -10 14 40 -21.1 -6
11:20 1013 29.91 842 24.86 -9.7 14.5 41 -20.7 -5.2
11:25 1013 29.91 842 24.86 -9.8 14.4 43 -20.3 -4.6
11:30 1013 29.91 842 24.86 -9.9 14.2 43 -20.1 -4.2
11:35 1013 29.91 842 24.86 -10.1 13.8 45 -20 -4.1
11:40 1013 29.91 842 24.86 -10.1 13.8 45 -20 -4
11:45 1013 29.91 842 24.86 -10.3 13.5 42 -20.9 -5.7
11:50 1013 29.91 842 24.86 -10.8 12.6 44 -20.7 -5.3
11:55 1013 29.91 842 24.86 -10.5 13 42 -21 -5.8
12:00 1013 29.91 842 24.86 -10.6 13 41 -21.4 -6.6
12:05 1013 29.91 842 24.86 -11 12.2 44 -20.9 -5.6
12:10 1013 29.91 842 24.86 -11.1 11.9 46 -20.6 -5.1
12:15 1013 29.91 842 24.86 -12.4 9.7 51 -20.6 -5
12:20 1013 29.91 842 24.86 -12.4 9.6 48 -21.3 -6.3
12:25 1012 29.88 842 24.86 -12.4 9.7 51 -20.6 -5
12:30 1012 29.88 842 24.86 -12.4 9.7 51 -20.6 -5.1
12:35 1012 29.88 842 24.86 -12.5 9.5 51 -20.6 -5.1
12:40 1012 29.88 842 24.86 -13.1 8.5 53 -20.7 -5.2
12:45 1012 29.88 842 24.86 -13.3 8 52 -21.3 -6.3
12:50 1012 29.88 841 24.83 -13.3 8.1 50 -21.6 -6.9
12:55 1012 29.88 841 24.83 -13.1 8.5 47 -22.1 -7.8
13:00 1012 29.88 841 24.83 -12.8 9.1 49 -21.5 -6.7
13:05 1012 29.88 841 24.83 -12.2 10 47 -21.5 -6.6
13:10 1012 29.88 841 24.83 -12.3 9.8 45 -22 -7.5
13:15 1012 29.88 841 24.83 -12.2 10.1 47 -21.3 -6.3
13:20 1012 29.88 841 24.83 -12 10.4 46 -21.3 -6.4
13:25 1012 29.88 841 24.83 -11.8 10.7 45 -21.5 -6.6
13:30 1012 29.88 841 24.83 -11.9 10.7 46 -21.3 -6.4
13:35 1012 29.88 841 24.83 -11.6 11.1 47 -20.8 -5.5
13:40 1012 29.88 841 24.83 -11.4 11.5 46 -20.9 -5.6
13:45 1012 29.88 841 24.83 -11.3 11.6 46 -20.8 -5.4
13:50 1012 29.88 841 24.83 -11.8 10.8 47 -20.8 -5.5
13:55 1012 29.88 841 24.83 -11.7 10.9 47 -21 -5.7
14:00 1012 29.88 841 24.83 -11.8 10.7 46 -21.2 -6.1
14:05 1012 29.88 841 24.83 -11.6 11.2 49 -20.4 -4.7
14:10 1012 29.88 841 24.83 -11 12.1 46 -20.4 -4.8
14:15 1012 29.88 841 24.83 -11.2 11.9 47 -20.4 -4.7
14:20 1012 29.88 841 24.83 -11.2 11.8 48 -20.3 -4.5
14:25 1012 29.88 841 24.83 -11.1 12 48 -20.1 -4.1
14:30 1012 29.88 841 24.83 -11.6 11 49 -20.3 -4.6
14:35 1012 29.88 841 24.83 -11.6 11.2 50 -20 -4
14:40 1012 29.88 841 24.83 -11.4 11.5 50 -20 -3.9
14:45 1012 29.88 841 24.83 -11.3 11.7 49 -20 -3.9
14:50 1012 29.88 841 24.83 -11 12.3 47 -20.3 -4.5
14:55 1012 29.88 841 24.83 -10.7 12.8 47 -19.9 -3.9
15:00 1012 29.88 841 24.83 -10.5 13.1 48 -19.4 -2.9
15:05 1012 29.88 841 24.83 -10.7 12.7 50 -19.3 -2.8
15:10 1012 29.88 841 24.83 -10.9 12.3 48 -19.9 -3.8
15:15 1012 29.88 841 24.83 -10.9 12.4 50 -19.4 -3
15:20 1012 29.88 841 24.83 -10.6 13 48 -19.6 -3.3
15:25 1012 29.88 841 24.83 -10.5 13.1 51 -18.7 -1.7
15:30 1012 29.88 841 24.83 -10.6 12.9 51 -19 -2.2
15:35 1012 29.88 841 24.83 -10.7 12.7 51 -19.1 -2.3
15:40 1012 29.88 841 24.83 -10.7 12.8 51 -18.9 -2
15:45 1012 29.88 841 24.83 -10.6 13 49 -19.3 -2.7
15:50 1012 29.88 841 24.83 -10.4 13.2 46 -20 -4
15:55 1012 29.88 841 24.83 -10.2 13.7 51 -18.6 -1.5
16:00 1012 29.88 841 24.83 -10 14 49 -18.8 -1.8
16:05 1012 29.88 841 24.83 -10.5 13.1 47 -19.7 -3.5
16:10 1012 29.88 841 24.83 -10.2 13.7 50 -18.7 -1.6
16:15 1012 29.88 841 24.83 -10.2 13.6 52 -18.4 -1.1
16:20 1012 29.88 841 24.83 -10.3 13.4 49 -19 -2.2
16:25 1012 29.88 841 24.83 -10.3 13.4 49 -19.1 -2.3
16:30 1012 29.88 841 24.83 -10.1 13.9 50 -18.6 -1.6
16:35 1012 29.88 842 24.86 -10.3 13.6 52 -18.3 -1
16:40 1012 29.88 842 24.86 -10.7 12.8 52 -18.7 -1.7
16:45 1012 29.88 842 24.86 -10.7 12.8 55 -18.2 -0.7
16:50 1012 29.88 842 24.86 -10.5 13.2 52 -18.5 -1.3
16:55 1012 29.88 842 24.86 -10.2 13.6 50 -18.8 -1.8
17:00 1012 29.88 842 24.86 -10 14 50 -18.7 -1.6
17:05 1012 29.88 842 24.86 -10.1 13.9 50 -18.5 -1.3
17:10 1012 29.88 842 24.86 -10.1 13.9 52 -18.2 -0.8
17:15 1012 29.88 842 24.86 -10 14.1 51 -18.4 -1.1
17:20 1012 29.88 841 24.83 -9.8 14.4 50 -18.4 -1.1
17:25 1012 29.88 841 24.83 -10.2 13.7 53 -17.9 -0.3
17:30 1012 29.88 842 24.86 -10.3 13.5 58 -17.1 1.2
17:35 1012 29.88 842 24.86 -10.3 13.4 56 -17.5 0.4
17:40 1012 29.88 842 24.86 -10.3 13.6 57 -17.3 0.9
17:45 1012 29.88 842 24.86 -10.1 13.8 56 -17.3 0.9
17:50 1012 29.88 841 24.83 -10.2 13.7 59 -16.7 1.9
17:55 1012 29.88 841 24.83 -10.2 13.6 60 -16.7 2
18:00 1012 29.88 841 24.83 -10.2 13.6 58 -17 1.5
18:05 1012 29.88 841 24.83 -10.3 13.5 57 -17.2 1
18:10 1012 29.88 841 24.83 -10.3 13.4 59 -16.8 1.8
18:15 1012 29.88 841 24.83 -10.4 13.3 56 -17.5 0.4
18:20 1012 29.88 841 24.83 -10.5 13.2 58 -17.3 0.9
18:25 1012 29.88 841 24.83 -10.5 13.1 57 -17.5 0.5
18:30 1012 29.88 841 24.83 -10.3 13.5 55 -17.6 0.3
18:35 1012 29.88 841 24.83 -10 14 51 -18.3 -1
18:40 1012 29.88 841 24.83 -9.9 14.2 54 -17.6 0.4
18:45 1012 29.88 841 24.83 -10 14.1 54 -17.7 0.2
18:50 1012 29.88 841 24.83 -10 14 52 -18 -0.4
18:55 1012 29.88 841 24.83 -10 14 52 -18.1 -0.6
19:00 1012 29.88 841 24.83 -9.7 14.5 53 -17.7 0.1
19:05 1012 29.88 841 24.83 -9.6 14.8 49 -18.3 -1
19:10 1012 29.88 841 24.83 -9.3 15.3 48 -18.3 -1
19:15 1012 29.88 841 24.83 -9 15.8 44 -19.1 -2.3
19:20 1012 29.88 841 24.83 -8.9 15.9 44 -19.2 -2.6
19:25 1012 29.88 841 24.83 -8.8 16.2 44 -18.9 -2
19:30 1012 29.88 841 24.83 -8.8 16.2 45 -18.6 -1.5
19:35 1012 29.88 841 24.83 -8.8 16.2 45 -18.6 -1.5
19:40 1012 29.88 841 24.83 -8.7 16.4 47 -18.1 -0.6
19:45 1012 29.88 841 24.83 -8.8 16.2 48 -17.9 -0.2
19:50 1012 29.88 841 24.83 -8.9 16.1 48 -18.1 -0.5
19:55 1012 29.88 841 24.83 -8.9 15.9 48 -18 -0.4
20:00 1012 29.88 841 24.83 -9 15.9 48 -18 -0.4
20:05 1012 29.88 841 24.83 -8.9 15.9 48 -18 -0.5
20:10 1012 29.88 841 24.83 -8.8 16.2 47 -18.1 -0.5
20:15 1012 29.88 841 24.83 -8.7 16.3 47 -18 -0.4
20:20 1012 29.88 841 24.83 -8.7 16.4 47 -18 -0.3
20:25 1012 29.88 841 24.83 -8.6 16.5 48 -17.8 -0
20:30 1012 29.88 841 24.83 -8.6 16.6 48 -17.8 -0
20:35 1012 29.88 841 24.83 -8.6 16.5 49 -17.6 0.3
20:40 1012 29.88 841 24.83 -8.6 16.5 49 -17.5 0.4
20:45 1012 29.88 841 24.83 -8.7 16.4 50 -17.3 0.8
20:50 1012 29.88 841 24.83 -8.8 16.2 50 -17.4 0.6
20:55 1012 29.88 841 24.83 -8.7 16.4 50 -17.3 0.9
21:00 1012 29.88 841 24.83 -8.6 16.5 50 -17.4 0.7
21:05 1012 29.88 841 24.83 -8.5 16.6 49 -17.4 0.7
21:10 1012 29.88 841 24.83 -8.5 16.7 49 -17.5 0.5
21:15 1012 29.88 841 24.83 -8.5 16.7 48 -17.7 0.1
21:20 1012 29.88 841 24.83 -8.5 16.8 48 -17.7 0.2
21:25 1012 29.88 841 24.83 -8.5 16.7 46 -18.1 -0.5
21:30 1012 29.88 841 24.83 -8.5 16.7 47 -18 -0.5
21:35 1012 29.88 841 24.83 -8.4 16.8 46 -18.1 -0.6
21:40 1012 29.88 841 24.83 -8.4 17 44 -18.5 -1.3
21:45 1012 29.88 841 24.83 -8.4 16.9 44 -18.7 -1.7
21:50 1012 29.88 841 24.83 -8.3 17 45 -18.2 -0.7
21:55 1012 29.88 841 24.83 -8.3 17.1 44 -18.6 -1.5
22:00 1012 29.88 841 24.83 -8.2 17.3 45 -18.1 -0.5
22:05 1012 29.88 841 24.83 -8.2 17.3 46 -17.9 -0.2
22:10 1012 29.88 841 24.83 -8.2 17.2 46 -17.9 -0.3
22:15 1012 29.88 841 24.83 -8.3 17 46 -18 -0.4
22:20 1012 29.88 841 24.83 -8.8 16.2 50 -17.5 0.4
22:25 1012 29.88 841 24.83 -9 15.8 49 -17.8 -0.1
22:30 1012 29.88 841 24.83 -9 15.8 49 -17.8 -0.1
22:35 1012 29.88 841 24.83 -8.9 16 50 -17.4 0.6
22:40 1012 29.88 841 24.83 -8.9 16 51 -17.4 0.7
22:45 1012 29.88 841 24.83 -8.9 16 49 -17.7 0.1
22:50 1012 29.88 841 24.83 -8.9 15.9 49 -17.7 0.1
22:55 1012 29.88 841 24.83 -8.9 16.1 47 -18.2 -0.7
23:00 1012 29.88 841 24.83 -9 15.9 50 -17.6 0.3
23:05 1012 29.88 841 24.83 -9.1 15.7 50 -17.7 0.2
23:10 1012 29.88 841 24.83 -9.3 15.3 49 -18.2 -0.7
23:15 1012 29.88 841 24.83 -9.7 14.5 50 -18.4 -1.1
23:20 1012 29.88 841 24.83 -9.7 14.5 49 -18.7 -1.6
23:25 1012 29.88 841 24.83 -9.6 14.8 49 -18.4 -1.2
23:30 1012 29.88 841 24.83 -9.5 14.8 51 -17.9 -0.2
23:35 1012 29.88 841 24.83 -9.6 14.8 49 -18.4 -1.1
23:40 1012 29.88 841 24.83 -9.6 14.8 54 -17.3 0.9
23:45 1012 29.88 841 24.83 -9.7 14.5 53 -17.6 0.4
23:50 1012 29.88 841 24.83 -9.6 14.8 52 -17.7 0.1
23:55 1012 29.88 841 24.83 -9.4 15.1 51 -17.7 0.1
24:00 1012 29.88 841 24.83 -9.4 15 50 -17.9 -0.3